Time;durP1;ratioP1;P1;durP2;ratioP2;P2;SDS_P1;SDS_P2;PMS_P1;PMS_P2;Temp;Humidity;BMP_temperature;BMP_pressure;BME280_temperature;BME280_humidity;BME280_pressure;Samples;Min_cycle;Max_cycle;Signal;HPM_P1;HPM_P2
2022/01/07 00:01:06;;;;;;;54.22;36.28;;;77.70;2227.20;;;;;;5019964;28;20034;-87
2022/01/07 00:03:53;;;;;;;58.97;38.08;;;102.60;2227.20;;;;;;5019463;28;20033;-88
2022/01/07 00:06:19;;;;;;;71.22;44.22;;;102.60;1843.20;;;;;;5019355;28;20036;-88
2022/01/07 00:08:45;;;;;;;57.28;38.92;;;102.50;2227.20;;;;;;5019686;28;20034;-89
2022/01/07 00:11:17;;;;;;;56.35;39.03;;;102.40;2227.20;;;;;;5019761;28;20022;-89
2022/01/07 00:13:43;;;;;;;59.83;37.88;;;102.50;2227.20;;;;;;5019579;28;20032;-88
2022/01/07 00:16:11;;;;;;;68.20;43.35;;;102.50;2227.20;;;;;;5019674;28;20025;-88
2022/01/07 00:18:44;;;;;;;62.55;41.65;;;102.40;2227.20;;;;;;5019656;28;20025;-90
2022/01/07 00:21:13;;;;;;;61.47;39.95;;;77.70;2227.20;;;;;;5018951;28;20036;-90
2022/01/07 00:23:39;;;;;;;80.68;51.25;;;102.40;2227.20;;;;;;5019706;28;20021;-90
2022/01/07 00:26:05;;;;;;;63.17;43.50;;;102.50;2227.20;;;;;;5019470;28;20024;-88
2022/01/07 00:28:34;;;;;;;60.78;41.28;;;102.50;2227.20;;;;;;5019386;28;20025;-89
2022/01/07 00:31:08;;;;;;;60.45;40.20;;;102.40;2227.20;;;;;;5019414;28;20053;-87
2022/01/07 00:33:38;;;;;;;61.50;40.42;;;102.90;2227.20;;;;;;5020002;28;20052;-89
2022/01/07 00:36:06;;;;;;;60.15;41.15;;;102.50;2227.20;;;;;;5021055;28;20025;-86
2022/01/07 00:38:33;;;;;;;63.65;40.33;;;102.50;2227.20;;;;;;5019837;28;20527;-88
2022/01/07 00:41:01;;;;;;;60.58;39.28;;;102.50;2227.20;;;;;;5018979;28;20025;-86
2022/01/07 00:43:27;;;;;;;60.45;39.28;;;102.40;2227.20;;;;;;5019022;28;20029;-88
2022/01/07 00:49:38;;;;;;;59.30;39.42;;;102.60;2227.20;;;;;;4975887;28;20086;-90
2022/01/07 00:52:05;;;;;;;53.95;36.00;;;102.50;2048.00;;;;;;5019347;28;20030;-88
2022/01/07 00:54:30;;;;;;;61.08;39.20;;;102.50;2227.20;;;;;;5018839;28;20536;-88
2022/01/07 00:56:57;;;;;;;57.10;39.30;;;102.40;2227.20;;;;;;5018977;28;20055;-90
2022/01/07 00:59:22;;;;;;;63.00;40.45;;;77.70;2176.00;;;;;;5018936;28;20018;-90
2022/01/07 01:01:49;;;;;;;60.05;39.40;;;77.60;2227.20;;;;;;5018742;28;20409;-90
2022/01/07 01:04:14;;;;;;;61.78;38.63;;;77.60;2227.20;;;;;;5018592;28;20033;-90
2022/01/07 01:06:41;;;;;;;53.67;35.28;;;77.60;2227.20;;;;;;5018587;28;20025;-88
2022/01/07 01:09:10;;;;;;;60.85;38.03;;;77.70;2227.20;;;;;;5018538;28;20053;-90
2022/01/07 01:11:37;;;;;;;58.00;38.15;;;77.70;1971.20;;;;;;5018611;28;20028;-89
2022/01/07 01:14:04;;;;;;;62.28;39.30;;;77.70;2227.20;;;;;;5018519;28;20052;-89
2022/01/07 01:16:30;;;;;;;68.05;41.63;;;77.70;2227.20;;;;;;5018512;28;20018;-90
2022/01/07 01:18:56;;;;;;;61.85;41.05;;;77.70;2227.20;;;;;;5018702;28;20043;-88
2022/01/07 01:21:22;;;;;;;74.05;47.25;;;102.40;2227.20;;;;;;5018542;28;20108;-89
2022/01/07 01:23:50;;;;;;;70.10;46.08;;;102.40;2227.20;;;;;;5035051;28;20380;-88
2022/01/07 01:26:18;;;;;;;55.33;35.47;;;102.40;2227.20;;;;;;5034948;28;20117;-89
2022/01/07 01:28:44;;;;;;;62.65;40.40;;;102.40;2227.20;;;;;;5035134;28;20029;-89
2022/01/07 01:31:10;;;;;;;67.38;42.55;;;102.40;2227.20;;;;;;5022807;28;20346;-89
2022/01/07 01:33:36;;;;;;;68.30;42.58;;;77.60;2227.20;;;;;;5034711;28;20032;-91
2022/01/07 01:36:02;;;;;;;58.63;39.15;;;77.70;2227.20;;;;;;5034779;28;20468;-89
2022/01/07 01:38:30;;;;;;;71.95;45.50;;;77.70;2227.20;;;;;;5018298;28;20029;-89
2022/01/07 01:40:56;;;;;;;74.70;49.15;;;77.70;2227.20;;;;;;5034737;28;20021;-90
2022/01/07 01:43:22;;;;;;;74.97;47.25;;;102.50;2227.20;;;;;;5017965;28;20064;-90
2022/01/07 01:45:48;;;;;;;72.78;46.80;;;77.70;2227.20;;;;;;5018046;28;20052;-89
2022/01/07 01:48:14;;;;;;;68.47;43.28;;;102.40;2227.20;;;;;;5018007;28;20051;-89
2022/01/07 01:50:40;;;;;;;69.13;45.58;;;102.40;2227.20;;;;;;5034494;28;20024;-88
2022/01/07 01:53:06;;;;;;;78.07;49.72;;;102.50;2227.20;;;;;;5017741;28;20052;-90
2022/01/07 01:55:31;;;;;;;66.20;42.58;;;102.40;2227.20;;;;;;5034478;28;20021;-89
2022/01/07 01:57:58;;;;;;;56.40;36.83;;;77.70;2227.20;;;;;;5033989;28;20032;-89
2022/01/07 02:00:26;;;;;;;52.90;34.88;;;102.80;2227.20;;;;;;5017861;28;20116;-88
2022/01/07 02:02:52;;;;;;;52.85;34.65;;;77.40;2227.20;;;;;;5017843;28;20097;-89
2022/01/07 02:05:18;;;;;;;54.97;35.63;;;77.50;2227.20;;;;;;5017592;28;20039;-88
2022/01/07 02:07:44;;;;;;;57.92;38.00;;;77.40;2227.20;;;;;;5034320;28;20025;-91
2022/01/07 02:10:16;;;;;;;60.25;36.75;;;77.40;2227.20;;;;;;5034234;28;20040;-89
2022/01/07 02:12:42;;;;;;;59.08;38.70;;;77.50;2227.20;;;;;;5017140;28;20032;-89
2022/01/07 02:15:10;;;;;;;64.63;40.28;;;77.60;2227.20;;;;;;5017480;28;20049;-89
2022/01/07 02:17:41;;;;;;;69.20;43.30;;;77.60;2227.20;;;;;;5017595;28;20025;-89
2022/01/07 02:20:09;;;;;;;59.50;37.65;;;77.60;2227.20;;;;;;5017458;28;20079;-89
2022/01/07 02:22:35;;;;;;;57.53;39.25;;;77.50;2227.20;;;;;;5017529;28;20037;-88
2022/01/07 02:25:02;;;;;;;58.90;37.47;;;77.50;2227.20;;;;;;5034001;28;20032;-89
2022/01/07 02:27:29;;;;;;;56.75;36.20;;;77.30;2227.20;;;;;;5017084;28;20029;-88
2022/01/07 02:29:55;;;;;;;62.33;41.05;;;77.40;2227.20;;;;;;5034946;28;20353;-88
2022/01/07 02:32:21;;;;;;;61.38;40.05;;;77.60;2227.20;;;;;;5017337;28;20014;-89
2022/01/07 02:34:48;;;;;;;55.90;37.28;;;77.60;2227.20;;;;;;5033946;28;20116;-89
2022/01/07 02:37:15;;;;;;;53.53;35.63;;;77.60;2227.20;;;;;;5017499;28;20121;-89
2022/01/07 02:39:41;;;;;;;51.40;33.42;;;77.60;2227.20;;;;;;5017540;28;20018;-88
2022/01/07 02:42:08;;;;;;;55.63;36.00;;;77.70;2227.20;;;;;;5017396;28;20025;-90
2022/01/07 02:44:34;;;;;;;52.58;35.42;;;77.70;2227.20;;;;;;5017598;28;20029;-89
2022/01/07 02:47:00;;;;;;;51.78;33.78;;;77.60;2227.20;;;;;;5033864;28;20044;-90
2022/01/07 02:49:26;;;;;;;54.42;37.00;;;77.40;2227.20;;;;;;5017365;28;20457;-90
2022/01/07 02:51:52;;;;;;;54.33;35.28;;;77.40;2227.20;;;;;;5017141;28;20457;-89
2022/01/07 02:54:18;;;;;;;50.95;33.38;;;77.40;2227.20;;;;;;5033480;28;20076;-90
2022/01/07 02:56:44;;;;;;;46.75;30.05;;;77.30;2227.20;;;;;;5017036;28;20052;-89
2022/01/07 02:59:10;;;;;;;44.17;29.60;;;77.30;2227.20;;;;;;5033674;28;20361;-88
2022/01/07 03:01:38;;;;;;;48.28;30.83;;;77.70;2227.20;;;;;;5017112;28;20080;-88
2022/01/07 03:04:06;;;;;;;46.10;31.48;;;77.40;2227.20;;;;;;5017082;28;20061;-90
2022/01/07 03:06:33;;;;;;;48.88;31.17;;;77.50;2227.20;;;;;;5016876;28;20041;-89
2022/01/07 03:08:59;;;;;;;56.13;34.53;;;77.60;2227.20;;;;;;5016884;28;20029;-90
2022/01/07 03:11:25;;;;;;;50.45;32.75;;;77.70;2227.20;;;;;;5016983;28;20028;-90
2022/01/07 03:13:51;;;;;;;50.20;33.40;;;77.60;2227.20;;;;;;5034857;28;20025;-89
2022/01/07 03:16:17;;;;;;;46.42;30.27;;;77.60;2227.20;;;;;;5040834;28;20037;-87
2022/01/07 03:18:43;;;;;;;49.92;30.92;;;77.60;2227.20;;;;;;5044554;28;20047;-88
2022/01/07 03:21:09;;;;;;;51.03;32.17;;;77.60;2227.20;;;;;;5042263;28;20045;-88
2022/01/07 03:23:40;;;;;;;53.30;33.97;;;77.60;2227.20;;;;;;5035866;28;20037;-89
2022/01/07 03:26:06;;;;;;;55.92;34.22;;;77.70;2227.20;;;;;;5019706;28;20022;-89
2022/01/07 03:28:32;;;;;;;60.30;39.00;;;77.70;2227.20;;;;;;5020649;28;20017;-88
2022/01/07 03:30:58;;;;;;;62.85;40.25;;;77.70;2227.20;;;;;;5037093;28;20028;-88
2022/01/07 03:33:25;;;;;;;75.60;47.15;;;102.40;2227.20;;;;;;5020419;28;20063;-89
2022/01/07 03:35:51;;;;;;;75.32;49.58;;;102.40;2227.20;;;;;;5020498;28;20022;-89
2022/01/07 03:38:17;;;;;;;77.10;47.35;;;102.40;2227.20;;;;;;5020727;28;20041;-88
2022/01/07 03:40:43;;;;;;;57.33;38.05;;;102.50;2227.20;;;;;;5020683;28;20408;-90
2022/01/07 03:43:09;;;;;;;54.38;36.60;;;77.70;2227.20;;;;;;5020501;28;20030;-89
2022/01/07 03:45:35;;;;;;;51.15;34.65;;;77.60;2227.20;;;;;;5020444;28;20021;-90
2022/01/07 03:48:01;;;;;;;57.53;36.40;;;77.40;2227.20;;;;;;5020334;28;20030;-91
2022/01/07 03:50:28;;;;;;;51.63;33.55;;;77.40;2227.20;;;;;;5020149;28;20083;-89
2022/01/07 03:52:55;;;;;;;53.22;34.20;;;77.30;2227.20;;;;;;5020181;28;20056;-88
2022/01/07 03:55:24;;;;;;;47.53;31.25;;;77.30;2227.20;;;;;;5020160;28;20100;-90
2022/01/07 03:57:50;;;;;;;51.28;34.17;;;77.20;2227.20;;;;;;5020091;28;20361;-88
2022/01/07 04:00:23;;;;;;;53.60;34.28;;;77.20;2227.20;;;;;;5020064;28;20076;-89
2022/01/07 04:02:49;;;;;;;57.60;37.03;;;77.20;2227.20;;;;;;5020420;28;20484;-89
2022/01/07 04:05:18;;;;;;;58.65;38.33;;;77.30;2227.20;;;;;;5037453;28;20033;-87
2022/01/07 04:07:44;;;;;;;62.53;37.08;;;77.30;2227.20;;;;;;5019960;28;20036;-88
2022/01/07 04:10:10;;;;;;;53.97;35.35;;;77.40;2227.20;;;;;;5036159;28;20017;-88
2022/01/07 04:12:36;;;;;;;45.88;31.50;;;77.40;2227.20;;;;;;5019753;28;20022;-87
2022/01/07 04:15:09;;;;;;;47.80;30.52;;;77.30;2227.20;;;;;;5019873;28;20028;-89
2022/01/07 04:17:40;;;;;;;42.53;29.55;;;77.30;2227.20;;;;;;5019939;28;20030;-88
2022/01/07 04:20:07;;;;;;;38.47;27.65;;;77.30;2227.20;;;;;;5020006;28;20144;-90
2022/01/07 04:22:33;;;;;;;46.78;31.38;;;77.20;2227.20;;;;;;5019809;28;20377;-89
2022/01/07 04:25:02;;;;;;;50.13;33.65;;;77.20;2227.20;;;;;;5036537;28;20108;-89
2022/01/07 04:27:29;;;;;;;49.55;31.85;;;77.30;2227.20;;;;;;5020134;28;20449;-87
2022/01/07 04:29:55;;;;;;;46.47;31.98;;;77.30;2227.20;;;;;;5019846;28;20032;-88
2022/01/07 04:32:21;;;;;;;46.42;31.70;;;77.40;2227.20;;;;;;5019406;28;20026;-88
2022/01/07 04:34:46;;;;;;;50.38;33.22;;;77.50;2227.20;;;;;;5035945;28;20028;-89
2022/01/07 04:37:12;;;;;;;51.38;31.80;;;77.40;2227.20;;;;;;5035618;28;20021;-90
2022/01/07 04:39:38;;;;;;;44.97;29.27;;;77.40;2227.20;;;;;;5035942;28;20025;-91
2022/01/07 04:42:04;;;;;;;46.03;30.38;;;77.40;2227.20;;;;;;5035979;28;20104;-89
2022/01/07 04:44:30;;;;;;;60.28;38.28;;;77.50;2227.20;;;;;;5019583;28;20536;-88
2022/01/07 04:46:56;;;;;;;52.53;33.97;;;77.60;2227.20;;;;;;5035929;28;20061;-89
2022/01/07 04:49:21;;;;;;;49.95;34.67;;;77.70;2227.20;;;;;;5035750;28;20017;-89
2022/01/07 04:51:47;;;;;;;61.10;39.85;;;77.70;2227.20;;;;;;5035930;28;20022;-89
2022/01/07 04:54:13;;;;;;;56.40;40.10;;;77.70;2227.20;;;;;;5018885;28;20545;-89
2022/01/07 04:56:39;;;;;;;76.95;50.50;;;77.70;2227.20;;;;;;5035523;28;20049;-89
2022/01/07 04:59:05;;;;;;;70.97;46.83;;;102.40;2227.20;;;;;;5035448;28;20116;-89
2022/01/07 05:01:30;;;;;;;58.17;39.50;;;102.40;2227.20;;;;;;5018736;28;20026;-89
2022/01/07 05:03:56;;;;;;;57.22;40.97;;;77.70;2227.20;;;;;;5035687;28;20384;-90
2022/01/07 05:08:48;;;;;;;55.28;38.78;;;77.70;2227.20;;;;;;5036388;28;20017;-91
2022/01/07 05:11:14;;;;;;;67.97;43.83;;;77.70;2227.20;;;;;;5035268;28;20029;-89
2022/01/07 05:13:40;;;;;;;56.15;39.55;;;77.60;2227.20;;;;;;5018571;28;20026;-89
2022/01/07 05:16:06;;;;;;;48.83;33.30;;;77.50;2227.20;;;;;;5035223;28;20108;-89
2022/01/07 05:18:33;;;;;;;41.67;30.00;;;77.40;2227.20;;;;;;5018557;28;20460;-89
2022/01/07 05:20:59;;;;;;;38.70;26.30;;;77.60;2227.20;;;;;;5018283;28;20025;-89
2022/01/07 05:23:24;;;;;;;44.35;28.60;;;77.60;2227.20;;;;;;5034926;28;20030;-88
2022/01/07 05:25:50;;;;;;;49.25;32.97;;;77.60;2227.20;;;;;;5034954;28;20048;-90
2022/01/07 05:28:16;;;;;;;46.92;34.08;;;77.70;2227.20;;;;;;5034744;28;20112;-90
2022/01/07 05:30:42;;;;;;;49.38;34.88;;;77.70;2227.20;;;;;;5034885;28;20052;-88
2022/01/07 05:33:08;;;;;;;47.35;35.47;;;102.40;2227.20;;;;;;5035300;28;20021;-87
2022/01/07 05:35:33;;;;;;;40.03;30.33;;;102.40;2227.20;;;;;;5036614;28;20033;-90
2022/01/07 05:37:59;;;;;;;71.05;51.63;;;102.40;2227.20;;;;;;5018759;28;20029;-89
2022/01/07 05:40:25;;;;;;;84.50;61.33;;;102.40;2227.20;;;;;;5018357;28;20025;-90
2022/01/07 05:42:51;;;;;;;59.45;39.40;;;77.70;2227.20;;;;;;5018023;28;20512;-89
2022/01/07 05:45:17;;;;;;;53.13;38.08;;;77.70;2227.20;;;;;;5035081;28;20022;-88
2022/01/07 05:47:43;;;;;;;48.63;35.25;;;102.40;2150.40;;;;;;5034091;28;20484;-88
2022/01/07 05:50:10;;;;;;;82.28;58.10;;;102.40;2201.60;;;;;;5034351;28;20025;-87
2022/01/07 05:52:36;;;;;;;50.05;35.85;;;102.40;2227.20;;;;;;5017729;28;20468;-88
2022/01/07 05:55:02;;;;;;;40.47;28.25;;;102.40;2227.20;;;;;;5034443;28;20021;-88
2022/01/07 05:57:28;;;;;;;37.95;27.30;;;77.60;2227.20;;;;;;5017936;28;20112;-88
2022/01/07 05:59:54;;;;;;;42.67;28.90;;;77.70;2227.20;;;;;;5034408;28;20591;-88
2022/01/07 06:02:20;;;;;;;42.53;29.10;;;77.70;2227.20;;;;;;5034129;28;20048;-89
2022/01/07 06:04:45;;;;;;;46.42;33.25;;;77.70;1945.60;;;;;;5034371;28;20028;-87
2022/01/07 06:07:11;;;;;;;52.97;35.47;;;77.60;2227.20;;;;;;5034339;28;20108;-87
2022/01/07 06:09:37;;;;;;;57.28;39.95;;;77.50;2227.20;;;;;;5034298;28;20024;-89
2022/01/07 06:12:07;;;;;;;51.80;38.67;;;77.60;2227.20;;;;;;5033962;28;20021;-89
2022/01/07 06:14:33;;;;;;;48.83;33.97;;;103.00;2227.20;;;;;;5017524;28;20017;-92
2022/01/07 06:17:02;;;;;;;39.72;29.42;;;77.50;2227.20;;;;;;5017874;28;20021;-89
2022/01/07 06:19:28;;;;;;;34.45;24.65;;;77.40;2227.20;;;;;;5017715;28;20482;-88
2022/01/07 06:22:04;;;;;;;37.55;26.08;;;77.30;2227.20;;;;;;5034758;28;20018;-90
2022/01/07 06:24:33;;;;;;;38.88;26.90;;;77.40;2227.20;;;;;;5017263;28;20026;-91
2022/01/07 06:27:05;;;;;;;49.58;34.53;;;77.40;2227.20;;;;;;5017246;28;20024;-89
2022/01/07 06:29:34;;;;;;;55.00;36.13;;;77.60;2227.20;;;;;;5033641;28;20025;-92
2022/01/07 06:32:00;;;;;;;71.00;48.85;;;77.60;2176.00;;;;;;5033604;28;20261;-88
2022/01/07 06:34:25;;;;;;;63.42;46.15;;;77.70;2227.20;;;;;;5033817;28;20022;-87
2022/01/07 06:36:52;;;;;;;78.32;46.50;;;102.40;2227.20;;;;;;5033042;28;20108;-89
2022/01/07 06:39:19;;;;;;;80.82;49.88;;;102.50;2227.20;;;;;;5017186;28;20416;-91
2022/01/07 06:41:49;;;;;;;68.40;41.72;;;102.50;2227.20;;;;;;5017352;28;20033;-88
2022/01/07 06:44:15;;;;;;;47.20;35.17;;;102.50;2227.20;;;;;;5030237;28;20044;-83
2022/01/07 06:46:41;;;;;;;44.90;31.67;;;102.40;2227.20;;;;;;5016494;28;20022;-87
2022/01/07 06:49:31;;;;;;;51.97;34.65;;;77.60;2227.20;;;;;;5033175;28;20021;-86
2022/01/07 06:51:57;;;;;;;53.33;37.60;;;77.50;2227.20;;;;;;5016886;28;20029;-90
2022/01/07 06:54:32;;;;;;;44.10;28.67;;;77.60;2227.20;;;;;;5030011;28;20120;-88
2022/01/07 06:56:58;;;;;;;45.30;32.60;;;77.50;2227.20;;;;;;5013600;28;20038;-84
2022/01/07 06:59:24;;;;;;;58.95;40.60;;;77.60;1920.00;;;;;;5031566;28;20106;-86
2022/01/07 07:01:50;;;;;;;47.47;35.08;;;77.60;2227.20;;;;;;5017157;28;20437;-87
2022/01/07 07:04:17;;;;;;;54.75;39.38;;;77.60;2227.20;;;;;;5008776;28;20019;-88
2022/01/07 07:06:43;;;;;;;40.42;30.45;;;77.70;2227.20;;;;;;5008740;28;20022;-87
2022/01/07 07:09:17;;;;;;;39.15;28.33;;;77.60;2227.20;;;;;;5000265;28;20049;-87
2022/01/07 07:11:43;;;;;;;74.25;45.25;;;77.70;2227.20;;;;;;5008854;28;20021;-86
2022/01/07 07:14:10;;;;;;;57.40;41.13;;;77.60;2227.20;;;;;;5002569;28;20033;-86
2022/01/07 07:16:36;;;;;;;35.92;24.70;;;77.70;2227.20;;;;;;5008658;28;20105;-84
2022/01/07 07:19:03;;;;;;;34.92;24.65;;;102.40;2227.20;;;;;;5033640;28;20049;-83
2022/01/07 07:21:29;;;;;;;33.47;24.55;;;102.40;2227.20;;;;;;5015892;28;20113;-86
2022/01/07 07:23:55;;;;;;;47.35;31.85;;;77.60;2227.20;;;;;;5010748;28;20444;-85
2022/01/07 07:26:20;;;;;;;41.13;29.98;;;77.70;2227.20;;;;;;5005958;28;20028;-85
2022/01/07 07:28:49;;;;;;;45.17;29.42;;;77.60;2227.20;;;;;;5017137;28;20079;-86
2022/01/07 07:31:17;;;;;;;68.63;45.47;;;77.60;2227.20;;;;;;5012844;28;20057;-83
2022/01/07 07:39:35;;;;;;;42.58;29.63;;;102.40;2227.20;;;;;;5027151;28;20037;-87
2022/01/07 07:42:01;;;;;;;55.97;39.63;;;102.40;2227.20;;;;;;5026581;28;20025;-86
2022/01/07 07:44:26;;;;;;;48.08;34.50;;;102.40;2227.20;;;;;;5041225;28;20087;-86
2022/01/07 07:46:52;;;;;;;41.55;29.63;;;102.50;2227.20;;;;;;5017976;28;20045;-88
2022/01/07 07:49:24;;;;;;;56.15;34.22;;;102.60;2227.20;;;;;;5018719;28;20030;-87
2022/01/07 07:51:56;;;;;;;44.80;29.67;;;102.50;2227.20;;;;;;5000736;28;20029;-90
2022/01/07 07:54:27;;;;;;;36.80;25.27;;;102.50;2227.20;;;;;;5016740;28;20049;-89
2022/01/07 07:56:55;;;;;;;42.45;28.73;;;102.50;2227.20;;;;;;5020257;28;20036;-90
2022/01/07 07:59:33;;;;;;;52.00;29.65;;;77.70;2227.20;;;;;;5019778;28;20025;-90
2022/01/07 08:02:01;;;;;;;46.60;28.00;;;102.40;2227.20;;;;;;5019574;28;20013;-86
2022/01/07 08:04:27;;;;;;;41.53;29.13;;;102.40;2227.20;;;;;;5019380;28;20026;-85
2022/01/07 08:06:53;;;;;;;97.75;55.67;;;102.60;2227.20;;;;;;5019713;28;20093;-84
2022/01/07 08:09:19;;;;;;;44.17;29.63;;;102.80;2227.20;;;;;;5035938;28;20026;-82
2022/01/07 08:11:52;;;;;;;94.20;49.90;;;102.70;2227.20;;;;;;5018686;28;20026;-86
2022/01/07 08:17:09;;;;;;;49.80;33.97;;;102.70;2227.20;;;;;;5037248;28;20088;-90
2022/01/07 08:19:39;;;;;;;80.03;51.28;;;102.60;2227.20;;;;;;5019439;28;20017;-88
2022/01/07 08:22:11;;;;;;;69.05;46.53;;;102.60;2227.20;;;;;;5019824;28;20483;-84
2022/01/07 08:24:40;;;;;;;33.17;24.48;;;102.70;2227.20;;;;;;5019198;28;20026;-84
2022/01/07 08:27:05;;;;;;;28.50;19.80;;;102.80;2227.20;;;;;;5018760;28;20021;-86
2022/01/07 08:29:35;;;;;;;30.15;20.42;;;102.90;2227.20;;;;;;5018847;28;20017;-86
2022/01/07 08:35:04;;;;;;;55.13;34.47;;;102.70;2227.20;;;;;;5036780;28;20028;-85
2022/01/07 08:37:30;;;;;;;34.03;23.67;;;102.70;2227.20;;;;;;5018564;28;20342;-86
2022/01/07 08:39:56;;;;;;;36.67;26.00;;;102.70;2227.20;;;;;;5018866;28;20032;-84
2022/01/07 08:42:23;;;;;;;27.58;20.73;;;102.70;2227.20;;;;;;5018854;28;20021;-85
2022/01/07 08:44:52;;;;;;;31.75;21.13;;;102.70;2227.20;;;;;;5036436;28;20025;-82
2022/01/07 08:47:22;;;;;;;54.80;35.80;;;102.70;2227.20;;;;;;5019077;28;20112;-85
2022/01/07 08:49:49;;;;;;;85.95;45.83;;;102.80;2227.20;;;;;;5019121;28;20025;-83
2022/01/07 08:52:15;;;;;;;71.30;37.67;;;102.80;2227.20;;;;;;5018431;28;20481;-84
2022/01/07 08:55:02;;;;;;;40.20;27.48;;;102.80;2227.20;;;;;;5018549;28;20052;-86
2022/01/07 08:57:48;;;;;;;35.38;23.52;;;102.90;2227.20;;;;;;5018460;28;20013;-88
2022/01/07 09:00:14;;;;;;;27.40;18.25;;;103.00;2227.20;;;;;;5019062;28;20024;-87
2022/01/07 09:02:40;;;;;;;34.00;20.80;;;128.00;2252.80;;;;;;5018648;28;20733;-88
2022/01/07 09:05:06;;;;;;;46.97;32.13;;;102.80;2227.20;;;;;;5018645;28;20013;-86
2022/01/07 09:07:33;;;;;;;39.28;27.05;;;128.00;2252.80;;;;;;5017837;28;20014;-80
2022/01/07 09:09:59;;;;;;;28.02;20.98;;;102.90;2227.20;;;;;;5017705;28;20112;-84
2022/01/07 09:12:25;;;;;;;32.08;22.02;;;102.90;2227.20;;;;;;5017532;28;20524;-81
2022/01/07 09:14:51;;;;;;;34.03;21.13;;;102.90;2227.20;;;;;;5009510;28;20033;-82
2022/01/07 09:17:17;;;;;;;39.00;26.20;;;103.00;2227.20;;;;;;5017761;28;20445;-84
2022/01/07 09:19:42;;;;;;;36.15;25.42;;;103.00;2227.20;;;;;;5017877;28;20160;-84
2022/01/07 09:22:08;;;;;;;44.75;31.67;;;103.20;2227.20;;;;;;5017300;28;20026;-85
2022/01/07 09:24:34;;;;;;;25.23;17.95;;;103.30;2227.20;;;;;;5017698;28;20029;-84
2022/01/07 09:27:00;;;;;;;34.47;23.38;;;103.10;2227.20;;;;;;5017599;28;20083;-81
2022/01/07 09:29:26;;;;;;;27.33;19.33;;;103.20;2227.20;;;;;;5017742;28;20021;-79
2022/01/07 09:31:53;;;;;;;29.88;21.88;;;128.00;2252.80;;;;;;5017752;28;20021;-89
2022/01/07 09:34:20;;;;;;;33.30;21.02;;;128.00;2252.80;;;;;;5017470;28;20025;-83
2022/01/07 09:36:46;;;;;;;38.10;23.92;;;128.00;2252.80;;;;;;5017441;28;20060;-83
2022/01/07 09:39:12;;;;;;;36.05;28.45;;;103.30;2227.20;;;;;;5017652;28;20025;-84
2022/01/07 09:41:39;;;;;;;32.10;22.08;;;128.40;2252.80;;;;;;5017258;28;20112;-86
2022/01/07 09:44:11;;;;;;;39.78;26.63;;;128.10;2252.80;;;;;;5034877;28;20033;-83
2022/01/07 09:46:39;;;;;;;36.38;24.50;;;128.20;2252.80;;;;;;5017606;28;20026;-83
2022/01/07 09:49:05;;;;;;;37.15;25.27;;;128.40;2252.80;;;;;;5017698;28;20033;-83
2022/01/07 09:52:07;;;;;;;33.05;22.10;;;128.20;2252.80;;;;;;5017364;28;20052;-87
2022/01/07 09:54:46;;;;;;;34.03;24.10;;;128.30;2252.80;;;;;;5031573;28;20037;-86
2022/01/07 09:57:12;;;;;;;37.60;23.70;;;128.30;2252.80;;;;;;5021075;28;20032;-84
2022/01/07 10:06:29;;;;;;;31.35;21.10;;;128.30;2252.80;;;;;;5034892;28;20053;-85
2022/01/07 10:15:33;;;;;;;50.83;38.75;;;128.00;2252.80;;;;;;5034843;28;20036;-83
2022/01/07 10:18:10;;;;;;;34.85;23.30;;;128.30;2252.80;;;;;;5033346;28;20412;-86
2022/01/07 10:20:49;;;;;;;26.73;19.48;;;128.20;2252.80;;;;;;5033600;28;20427;-85
2022/01/07 10:23:47;;;;;;;33.38;23.52;;;128.30;2252.80;;;;;;5033103;28;20472;-86
2022/01/07 10:26:37;;;;;;;43.60;27.73;;;128.40;2252.80;;;;;;5033909;28;20110;-89
2022/01/07 10:32:32;;;;;;;31.35;20.77;;;128.30;2252.80;;;;;;5034638;28;20060;-88
2022/01/07 10:35:17;;;;;;;36.70;24.10;;;128.30;2252.80;;;;;;5032853;28;20104;-89
2022/01/07 10:37:52;;;;;;;38.20;25.38;;;128.30;2252.80;;;;;;5034051;28;20072;-88
2022/01/07 10:44:30;;;;;;;37.80;23.88;;;128.50;2252.80;;;;;;4901346;29;20036;-86
2022/01/07 10:47:13;;;;;;;43.47;28.58;;;128.50;2252.80;;;;;;4914264;29;20039;-88
2022/01/07 10:49:39;;;;;;;47.33;29.73;;;128.40;2252.80;;;;;;4995121;28;20030;-86
2022/01/07 11:02:47;;;;;;;35.13;24.67;;;128.30;2252.80;;;;;;4955788;29;20136;-88
2022/01/07 11:05:13;;;;;;;46.35;30.23;;;128.30;2252.80;;;;;;4943397;29;20046;-86
2022/01/07 11:07:42;;;;;;;48.22;32.72;;;128.30;2252.80;;;;;;4998989;28;20021;-82
2022/01/07 11:10:22;;;;;;;41.65;27.40;;;128.60;2252.80;;;;;;4997264;28;20062;-88
2022/01/07 11:16:40;;;;;;;47.03;32.72;;;128.70;2252.80;;;;;;5011442;28;20358;-86
2022/01/07 11:19:08;;;;;;;34.92;26.70;;;128.60;2252.80;;;;;;4996792;28;20030;-87
2022/01/07 11:21:34;;;;;;;47.25;34.08;;;128.60;2252.80;;;;;;4997133;28;20084;-87
2022/01/07 11:24:35;;;;;;;45.83;35.00;;;128.70;2252.80;;;;;;4996788;28;20038;-85
2022/01/07 11:27:12;;;;;;;39.20;27.83;;;128.70;2252.80;;;;;;4997034;28;20021;-87
2022/01/07 11:29:40;;;;;;;40.45;24.48;;;128.70;2252.80;;;;;;4997131;28;20040;-87
2022/01/07 11:32:35;;;;;;;41.15;26.27;;;128.60;2252.80;;;;;;4997080;28;20026;-86
2022/01/07 11:35:19;;;;;;;55.35;37.08;;;128.70;2252.80;;;;;;4997082;28;20014;-89
2022/01/07 11:37:47;;;;;;;73.07;48.92;;;128.40;2252.80;;;;;;4997138;28;20362;-87
2022/01/07 11:40:29;;;;;;;54.40;36.28;;;128.80;2252.80;;;;;;4996923;28;20540;-86
2022/01/07 11:43:05;;;;;;;53.45;34.45;;;128.80;2252.80;;;;;;4997080;28;20029;-87
2022/01/07 11:45:38;;;;;;;46.17;31.23;;;128.80;2252.80;;;;;;4997631;28;20044;-86
2022/01/07 11:48:13;;;;;;;52.15;34.30;;;128.80;2252.80;;;;;;5000802;28;20014;-83
2022/01/07 11:50:54;;;;;;;41.60;29.17;;;128.80;2252.80;;;;;;5000845;28;20049;-87
2022/01/07 11:53:24;;;;;;;50.95;35.90;;;128.80;2252.80;;;;;;5000521;28;20053;-89
2022/01/07 11:55:57;;;;;;;115.20;83.80;;;128.80;2252.80;;;;;;5000136;28;20096;-87
2022/01/07 11:58:39;;;;;;;46.90;34.15;;;128.80;2252.80;;;;;;5015076;28;20381;-87
2022/01/07 12:01:06;;;;;;;43.80;30.27;;;128.80;2252.80;;;;;;5016418;28;20461;-86
2022/01/07 12:03:46;;;;;;;46.97;32.67;;;128.90;2252.80;;;;;;5016497;28;20536;-87
2022/01/07 12:06:21;;;;;;;57.35;36.55;;;128.90;2252.80;;;;;;5016960;28;20033;-87
2022/01/07 12:16:03;;;;;;;39.67;28.02;;;153.70;2252.80;;;;;;4957355;29;20038;-88
2022/01/07 12:18:38;;;;;;;42.72;30.48;;;153.70;2252.80;;;;;;4956523;28;20029;-88
2022/01/07 12:21:03;;;;;;;37.78;26.75;;;153.80;2252.80;;;;;;5032574;28;20032;-86
2022/01/07 12:23:32;;;;;;;31.55;21.65;;;153.80;2252.80;;;;;;5016139;28;20026;-86
2022/01/07 12:26:03;;;;;;;36.15;26.40;;;153.80;2252.80;;;;;;5032738;28;20030;-87
2022/01/07 12:28:40;;;;;;;45.10;31.15;;;153.80;2252.80;;;;;;5016040;28;20082;-85
2022/01/07 12:31:11;;;;;;;30.98;20.63;;;153.80;2252.80;;;;;;5015937;28;20022;-85
2022/01/07 12:33:49;;;;;;;38.25;26.70;;;128.90;2252.80;;;;;;5015736;28;20128;-86
2022/01/07 12:36:35;;;;;;;36.17;24.27;;;153.60;2252.80;;;;;;5015755;28;20022;-87
2022/01/07 12:39:04;;;;;;;34.72;24.98;;;153.70;2252.80;;;;;;5015969;28;20018;-86
2022/01/07 12:41:31;;;;;;;50.60;27.55;;;153.70;2252.80;;;;;;5015818;28;20022;-86
2022/01/07 12:44:12;;;;;;;36.63;25.98;;;153.70;2252.80;;;;;;5015751;28;20469;-88
2022/01/07 12:46:57;;;;;;;36.30;26.15;;;153.70;2252.80;;;;;;5017004;28;20114;-88
2022/01/07 12:56:33;;;;;;;38.92;27.45;;;153.70;2252.80;;;;;;4957019;28;20046;-86
2022/01/07 12:59:10;;;;;;;37.38;24.95;;;153.70;2252.80;;;;;;5015578;28;20046;-87
2022/01/07 13:01:36;;;;;;;36.50;25.92;;;153.60;2252.80;;;;;;5015451;28;20116;-85
2022/01/07 13:04:23;;;;;;;67.35;40.90;;;153.70;2252.80;;;;;;5031685;28;20121;-85
2022/01/07 13:06:51;;;;;;;48.20;31.58;;;153.70;2252.80;;;;;;5015049;28;20049;-79
2022/01/07 13:09:25;;;;;;;47.72;31.95;;;153.70;2252.80;;;;;;5014809;28;20060;-85
2022/01/07 13:11:54;;;;;;;49.70;33.08;;;153.60;2252.80;;;;;;5014852;28;20381;-83
2022/01/07 13:24:42;;;;;;;46.75;29.73;;;153.60;2252.80;;;;;;4974174;28;20031;-84
2022/01/07 13:27:08;;;;;;;41.03;28.70;;;153.60;2252.80;;;;;;5010643;28;20022;-81
2022/01/07 13:29:34;;;;;;;51.97;34.70;;;128.90;2252.80;;;;;;5015477;28;20017;-84